sensor_id;sensor_type;location;lat;lon;timestamp;temperature;humidity
4874;DHT22;2451;49.970;9.068;2023-02-22T00:01:09;6.40;99.90
4874;DHT22;2451;49.970;9.068;2023-02-22T00:03:50;6.30;99.90
4874;DHT22;2451;49.970;9.068;2023-02-22T00:06:19;6.30;99.90
4874;DHT22;2451;49.970;9.068;2023-02-22T00:08:47;6.20;99.90
4874;DHT22;2451;49.970;9.068;2023-02-22T00:11:14;6.20;99.90
4874;DHT22;2451;49.970;9.068;2023-02-22T00:13:40;6.20;99.90
4874;DHT22;2451;49.970;9.068;2023-02-22T00:16:13;6.10;99.90
4874;DHT22;2451;49.970;9.068;2023-02-22T00:18:38;6.20;99.90
4874;DHT22;2451;49.970;9.068;2023-02-22T00:21:04;6.20;99.90
4874;DHT22;2451;49.970;9.068;2023-02-22T00:23:34;6.20;99.90
4874;DHT22;2451;49.970;9.068;2023-02-22T00:26:02;6.20;99.90
4874;DHT22;2451;49.970;9.068;2023-02-22T00:28:28;6.20;99.90
4874;DHT22;2451;49.970;9.068;2023-02-22T00:30:55;6.10;99.90
4874;DHT22;2451;49.970;9.068;2023-02-22T00:33:20;6.10;99.90
4874;DHT22;2451;49.970;9.068;2023-02-22T00:35:46;6.10;99.90
4874;DHT22;2451;49.970;9.068;2023-02-22T00:38:14;6.10;99.90
4874;DHT22;2451;49.970;9.068;2023-02-22T00:40:40;6.10;99.90
4874;DHT22;2451;49.970;9.068;2023-02-22T00:43:06;6.10;99.90
4874;DHT22;2451;49.970;9.068;2023-02-22T00:45:33;6.00;99.90
4874;DHT22;2451;49.970;9.068;2023-02-22T00:47:59;6.00;99.90
4874;DHT22;2451;49.970;9.068;2023-02-22T00:50:28;6.00;99.90
4874;DHT22;2451;49.970;9.068;2023-02-22T00:52:55;5.90;99.90
4874;DHT22;2451;49.970;9.068;2023-02-22T00:55:32;5.90;99.90
4874;DHT22;2451;49.970;9.068;2023-02-22T00:57:58;5.90;99.90
4874;DHT22;2451;49.970;9.068;2023-02-22T01:00:36;5.80;99.90
4874;DHT22;2451;49.970;9.068;2023-02-22T01:03:08;5.90;99.90
4874;DHT22;2451;49.970;9.068;2023-02-22T01:05:34;5.80;99.90
4874;DHT22;2451;49.970;9.068;2023-02-22T01:08:00;5.80;99.90
4874;DHT22;2451;49.970;9.068;2023-02-22T01:10:29;5.70;99.90
4874;DHT22;2451;49.970;9.068;2023-02-22T01:12:56;5.70;99.90
4874;DHT22;2451;49.970;9.068;2023-02-22T01:15:24;5.70;99.90
4874;DHT22;2451;49.970;9.068;2023-02-22T01:17:51;5.60;99.90
4874;DHT22;2451;49.970;9.068;2023-02-22T01:20:18;5.60;99.90
4874;DHT22;2451;49.970;9.068;2023-02-22T01:22:46;5.60;99.90
4874;DHT22;2451;49.970;9.068;2023-02-22T01:25:16;5.60;99.90
4874;DHT22;2451;49.970;9.068;2023-02-22T01:27:42;5.50;99.90
4874;DHT22;2451;49.970;9.068;2023-02-22T01:30:10;5.50;99.90
4874;DHT22;2451;49.970;9.068;2023-02-22T01:32:38;5.50;99.90
4874;DHT22;2451;49.970;9.068;2023-02-22T01:35:07;5.50;99.90
4874;DHT22;2451;49.970;9.068;2023-02-22T01:37:34;5.60;99.90
4874;DHT22;2451;49.970;9.068;2023-02-22T01:40:00;5.50;99.90
4874;DHT22;2451;49.970;9.068;2023-02-22T01:42:26;5.50;99.90
4874;DHT22;2451;49.970;9.068;2023-02-22T01:47:56;5.50;99.90
4874;DHT22;2451;49.970;9.068;2023-02-22T01:50:22;5.50;99.90
4874;DHT22;2451;49.970;9.068;2023-02-22T01:52:49;5.50;99.90
4874;DHT22;2451;49.970;9.068;2023-02-22T01:55:16;5.40;99.90
4874;DHT22;2451;49.970;9.068;2023-02-22T01:57:42;5.40;99.90
4874;DHT22;2451;49.970;9.068;2023-02-22T02:00:12;5.40;99.90
4874;DHT22;2451;49.970;9.068;2023-02-22T02:02:43;5.40;99.90
4874;DHT22;2451;49.970;9.068;2023-02-22T02:05:10;5.40;99.90
4874;DHT22;2451;49.970;9.068;2023-02-22T02:07:37;5.40;99.90
4874;DHT22;2451;49.970;9.068;2023-02-22T02:10:09;5.40;99.90
4874;DHT22;2451;49.970;9.068;2023-02-22T02:12:39;5.40;99.90
4874;DHT22;2451;49.970;9.068;2023-02-22T02:15:21;5.40;99.90
4874;DHT22;2451;49.970;9.068;2023-02-22T02:17:48;5.30;99.90
4874;DHT22;2451;49.970;9.068;2023-02-22T02:28:59;5.20;99.90
4874;DHT22;2451;49.970;9.068;2023-02-22T02:43:05;5.20;99.90
4874;DHT22;2451;49.970;9.068;2023-02-22T02:45:57;5.20;99.90
4874;DHT22;2451;49.970;9.068;2023-02-22T02:48:27;5.30;99.90
4874;DHT22;2451;49.970;9.068;2023-02-22T02:50:55;5.20;99.90
4874;DHT22;2451;49.970;9.068;2023-02-22T02:53:24;5.20;99.90
4874;DHT22;2451;49.970;9.068;2023-02-22T02:55:51;5.20;99.90
4874;DHT22;2451;49.970;9.068;2023-02-22T02:58:21;5.20;99.90
4874;DHT22;2451;49.970;9.068;2023-02-22T03:00:51;5.20;99.90
4874;DHT22;2451;49.970;9.068;2023-02-22T03:06:56;5.20;99.90
4874;DHT22;2451;49.970;9.068;2023-02-22T03:11:54;5.10;99.90
4874;DHT22;2451;49.970;9.068;2023-02-22T03:17:52;5.00;99.90
4874;DHT22;2451;49.970;9.068;2023-02-22T03:20:45;5.00;99.90
4874;DHT22;2451;49.970;9.068;2023-02-22T03:23:21;5.00;99.90
4874;DHT22;2451;49.970;9.068;2023-02-22T03:26:10;5.00;99.90
4874;DHT22;2451;49.970;9.068;2023-02-22T03:28:38;5.00;99.90
4874;DHT22;2451;49.970;9.068;2023-02-22T03:31:09;5.00;99.90
4874;DHT22;2451;49.970;9.068;2023-02-22T03:33:40;5.00;99.90
4874;DHT22;2451;49.970;9.068;2023-02-22T03:36:27;5.00;99.90
4874;DHT22;2451;49.970;9.068;2023-02-22T03:38:56;4.90;99.90
4874;DHT22;2451;49.970;9.068;2023-02-22T03:41:25;4.90;99.90
4874;DHT22;2451;49.970;9.068;2023-02-22T03:43:57;4.90;99.90
4874;DHT22;2451;49.970;9.068;2023-02-22T03:46:25;4.90;99.90
4874;DHT22;2451;49.970;9.068;2023-02-22T03:48:59;5.00;99.90
4874;DHT22;2451;49.970;9.068;2023-02-22T03:51:27;5.00;99.90
4874;DHT22;2451;49.970;9.068;2023-02-22T03:53:53;5.00;99.90
4874;DHT22;2451;49.970;9.068;2023-02-22T03:56:26;5.00;99.90
4874;DHT22;2451;49.970;9.068;2023-02-22T03:58:53;5.00;99.90
4874;DHT22;2451;49.970;9.068;2023-02-22T04:01:19;4.90;99.90
4874;DHT22;2451;49.970;9.068;2023-02-22T04:03:48;4.90;99.90
4874;DHT22;2451;49.970;9.068;2023-02-22T04:06:13;4.90;99.90
4874;DHT22;2451;49.970;9.068;2023-02-22T04:08:39;4.80;99.90
4874;DHT22;2451;49.970;9.068;2023-02-22T04:11:04;4.80;99.90
4874;DHT22;2451;49.970;9.068;2023-02-22T04:13:30;4.80;99.90
4874;DHT22;2451;49.970;9.068;2023-02-22T04:15:55;4.80;99.90
4874;DHT22;2451;49.970;9.068;2023-02-22T04:18:21;4.80;99.90
4874;DHT22;2451;49.970;9.068;2023-02-22T04:20:46;4.70;99.90
4874;DHT22;2451;49.970;9.068;2023-02-22T04:23:12;4.70;99.90
4874;DHT22;2451;49.970;9.068;2023-02-22T04:25:38;4.70;99.90
4874;DHT22;2451;49.970;9.068;2023-02-22T04:28:03;4.70;99.90
4874;DHT22;2451;49.970;9.068;2023-02-22T04:30:29;4.70;99.90
4874;DHT22;2451;49.970;9.068;2023-02-22T04:32:55;4.70;99.90
4874;DHT22;2451;49.970;9.068;2023-02-22T04:35:21;4.70;99.90
4874;DHT22;2451;49.970;9.068;2023-02-22T04:37:47;4.70;99.90
4874;DHT22;2451;49.970;9.068;2023-02-22T04:40:14;4.70;99.90
4874;DHT22;2451;49.970;9.068;2023-02-22T04:42:41;4.70;99.90
4874;DHT22;2451;49.970;9.068;2023-02-22T04:45:07;4.80;99.90
4874;DHT22;2451;49.970;9.068;2023-02-22T04:47:34;4.80;99.90
4874;DHT22;2451;49.970;9.068;2023-02-22T04:49:59;4.80;99.90
4874;DHT22;2451;49.970;9.068;2023-02-22T04:52:26;4.80;99.90
4874;DHT22;2451;49.970;9.068;2023-02-22T04:54:51;4.70;99.90
4874;DHT22;2451;49.970;9.068;2023-02-22T04:57:17;4.70;99.90
4874;DHT22;2451;49.970;9.068;2023-02-22T04:59:43;4.80;99.90
4874;DHT22;2451;49.970;9.068;2023-02-22T05:02:08;4.70;99.90
4874;DHT22;2451;49.970;9.068;2023-02-22T05:04:35;4.70;99.90
4874;DHT22;2451;49.970;9.068;2023-02-22T05:07:04;4.70;99.90
4874;DHT22;2451;49.970;9.068;2023-02-22T05:09:29;4.70;99.90
4874;DHT22;2451;49.970;9.068;2023-02-22T05:11:55;4.60;99.90
4874;DHT22;2451;49.970;9.068;2023-02-22T05:14:21;4.50;99.90
4874;DHT22;2451;49.970;9.068;2023-02-22T05:16:49;4.40;99.90
4874;DHT22;2451;49.970;9.068;2023-02-22T05:19:14;4.30;99.90
4874;DHT22;2451;49.970;9.068;2023-02-22T05:21:40;4.20;99.90
4874;DHT22;2451;49.970;9.068;2023-02-22T05:24:06;4.10;99.90
4874;DHT22;2451;49.970;9.068;2023-02-22T05:26:31;4.10;99.90
4874;DHT22;2451;49.970;9.068;2023-02-22T05:28:57;4.10;99.90
4874;DHT22;2451;49.970;9.068;2023-02-22T05:31:23;4.10;99.90
4874;DHT22;2451;49.970;9.068;2023-02-22T05:33:48;4.10;99.90
4874;DHT22;2451;49.970;9.068;2023-02-22T05:36:14;4.10;99.90
4874;DHT22;2451;49.970;9.068;2023-02-22T05:38:41;4.00;99.90
4874;DHT22;2451;49.970;9.068;2023-02-22T05:41:10;4.00;99.90
4874;DHT22;2451;49.970;9.068;2023-02-22T05:43:36;4.10;99.90
4874;DHT22;2451;49.970;9.068;2023-02-22T05:46:02;4.10;99.90
4874;DHT22;2451;49.970;9.068;2023-02-22T05:48:28;4.10;99.90
4874;DHT22;2451;49.970;9.068;2023-02-22T05:50:53;4.20;99.90
4874;DHT22;2451;49.970;9.068;2023-02-22T05:53:20;4.20;99.90
4874;DHT22;2451;49.970;9.068;2023-02-22T05:55:45;4.20;99.90
4874;DHT22;2451;49.970;9.068;2023-02-22T05:58:11;4.30;99.90
4874;DHT22;2451;49.970;9.068;2023-02-22T06:00:37;4.30;99.90
4874;DHT22;2451;49.970;9.068;2023-02-22T06:03:05;4.40;99.90
4874;DHT22;2451;49.970;9.068;2023-02-22T06:05:31;4.40;99.90
4874;DHT22;2451;49.970;9.068;2023-02-22T06:07:57;4.50;99.90
4874;DHT22;2451;49.970;9.068;2023-02-22T06:10:23;4.50;99.90
4874;DHT22;2451;49.970;9.068;2023-02-22T06:12:50;4.50;99.90
4874;DHT22;2451;49.970;9.068;2023-02-22T06:15:17;4.50;99.90
4874;DHT22;2451;49.970;9.068;2023-02-22T06:17:43;4.50;99.90
4874;DHT22;2451;49.970;9.068;2023-02-22T06:20:10;4.60;99.90
4874;DHT22;2451;49.970;9.068;2023-02-22T06:22:36;4.60;99.90
4874;DHT22;2451;49.970;9.068;2023-02-22T06:25:03;4.60;99.90
4874;DHT22;2451;49.970;9.068;2023-02-22T06:27:30;4.60;99.90
4874;DHT22;2451;49.970;9.068;2023-02-22T06:29:58;4.60;99.90
4874;DHT22;2451;49.970;9.068;2023-02-22T06:32:23;4.70;99.90
4874;DHT22;2451;49.970;9.068;2023-02-22T06:34:49;4.60;99.90
4874;DHT22;2451;49.970;9.068;2023-02-22T06:37:14;4.60;99.90
4874;DHT22;2451;49.970;9.068;2023-02-22T06:39:40;4.60;99.90
4874;DHT22;2451;49.970;9.068;2023-02-22T06:42:08;4.60;99.90
4874;DHT22;2451;49.970;9.068;2023-02-22T06:44:34;4.70;99.90
4874;DHT22;2451;49.970;9.068;2023-02-22T06:47:00;4.70;99.90
4874;DHT22;2451;49.970;9.068;2023-02-22T06:49:26;4.70;99.90
4874;DHT22;2451;49.970;9.068;2023-02-22T06:51:52;4.70;99.90
4874;DHT22;2451;49.970;9.068;2023-02-22T06:54:19;4.70;99.90
4874;DHT22;2451;49.970;9.068;2023-02-22T06:56:44;4.80;99.90
4874;DHT22;2451;49.970;9.068;2023-02-22T06:59:10;4.80;99.90
4874;DHT22;2451;49.970;9.068;2023-02-22T07:01:36;4.80;99.90
4874;DHT22;2451;49.970;9.068;2023-02-22T07:04:04;4.80;99.90
4874;DHT22;2451;49.970;9.068;2023-02-22T07:06:29;4.90;99.90
4874;DHT22;2451;49.970;9.068;2023-02-22T07:08:55;4.90;99.90
4874;DHT22;2451;49.970;9.068;2023-02-22T07:11:21;4.90;99.90
4874;DHT22;2451;49.970;9.068;2023-02-22T07:13:46;5.00;99.90
4874;DHT22;2451;49.970;9.068;2023-02-22T07:16:12;5.00;99.90
4874;DHT22;2451;49.970;9.068;2023-02-22T07:18:37;5.00;99.90
4874;DHT22;2451;49.970;9.068;2023-02-22T07:21:04;5.00;99.90
4874;DHT22;2451;49.970;9.068;2023-02-22T07:23:30;5.10;99.90
4874;DHT22;2451;49.970;9.068;2023-02-22T07:25:58;5.20;99.90
4874;DHT22;2451;49.970;9.068;2023-02-22T07:28:23;5.20;99.90
4874;DHT22;2451;49.970;9.068;2023-02-22T07:30:49;5.30;99.90
4874;DHT22;2451;49.970;9.068;2023-02-22T07:33:15;5.30;99.90
4874;DHT22;2451;49.970;9.068;2023-02-22T07:35:46;5.30;99.90
4874;DHT22;2451;49.970;9.068;2023-02-22T07:38:13;5.40;99.90
4874;DHT22;2451;49.970;9.068;2023-02-22T07:40:40;5.40;99.90
4874;DHT22;2451;49.970;9.068;2023-02-22T07:45:40;5.50;99.90
4874;DHT22;2451;49.970;9.068;2023-02-22T07:48:06;5.50;99.90
4874;DHT22;2451;49.970;9.068;2023-02-22T07:50:32;5.60;99.90
4874;DHT22;2451;49.970;9.068;2023-02-22T07:53:04;5.60;99.90
4874;DHT22;2451;49.970;9.068;2023-02-22T07:55:31;5.60;99.90
4874;DHT22;2451;49.970;9.068;2023-02-22T07:58:02;5.70;99.90
4874;DHT22;2451;49.970;9.068;2023-02-22T08:00:38;5.70;99.90
4874;DHT22;2451;49.970;9.068;2023-02-22T08:03:07;5.70;99.90
4874;DHT22;2451;49.970;9.068;2023-02-22T08:05:35;5.80;99.90
4874;DHT22;2451;49.970;9.068;2023-02-22T08:08:01;5.80;99.90
4874;DHT22;2451;49.970;9.068;2023-02-22T08:10:27;5.90;99.90
4874;DHT22;2451;49.970;9.068;2023-02-22T08:12:54;6.00;99.90
4874;DHT22;2451;49.970;9.068;2023-02-22T08:15:28;6.10;99.90
4874;DHT22;2451;49.970;9.068;2023-02-22T08:17:56;6.30;99.90
4874;DHT22;2451;49.970;9.068;2023-02-22T08:20:22;6.50;99.90
4874;DHT22;2451;49.970;9.068;2023-02-22T08:22:48;6.70;99.90
4874;DHT22;2451;49.970;9.068;2023-02-22T08:25:15;7.00;99.90
4874;DHT22;2451;49.970;9.068;2023-02-22T08:27:42;7.30;99.90
4874;DHT22;2451;49.970;9.068;2023-02-22T08:30:13;7.50;99.90
4874;DHT22;2451;49.970;9.068;2023-02-22T08:32:39;7.80;99.90
4874;DHT22;2451;49.970;9.068;2023-02-22T08:35:05;8.10;99.90
4874;DHT22;2451;49.970;9.068;2023-02-22T08:37:31;8.30;99.90
4874;DHT22;2451;49.970;9.068;2023-02-22T08:39:56;8.70;99.90
4874;DHT22;2451;49.970;9.068;2023-02-22T08:42:22;9.10;99.90
4874;DHT22;2451;49.970;9.068;2023-02-22T08:44:48;9.40;99.90
4874;DHT22;2451;49.970;9.068;2023-02-22T08:47:14;9.60;99.90
4874;DHT22;2451;49.970;9.068;2023-02-22T08:49:39;10.00;99.90
4874;DHT22;2451;49.970;9.068;2023-02-22T08:52:07;10.30;99.90
4874;DHT22;2451;49.970;9.068;2023-02-22T08:54:32;10.40;99.90
4874;DHT22;2451;49.970;9.068;2023-02-22T08:56:58;10.60;99.90
4874;DHT22;2451;49.970;9.068;2023-02-22T08:59:24;10.80;99.90
4874;DHT22;2451;49.970;9.068;2023-02-22T09:01:49;10.80;99.90
4874;DHT22;2451;49.970;9.068;2023-02-22T09:04:15;10.80;99.90
4874;DHT22;2451;49.970;9.068;2023-02-22T09:06:41;10.70;99.90
4874;DHT22;2451;49.970;9.068;2023-02-22T09:09:07;10.80;99.90
4874;DHT22;2451;49.970;9.068;2023-02-22T09:11:33;10.80;99.90
4874;DHT22;2451;49.970;9.068;2023-02-22T09:13:58;11.00;99.90
4874;DHT22;2451;49.970;9.068;2023-02-22T09:16:24;11.10;99.90
4874;DHT22;2451;49.970;9.068;2023-02-22T09:18:49;11.20;99.90
4874;DHT22;2451;49.970;9.068;2023-02-22T09:21:15;11.10;99.90
4874;DHT22;2451;49.970;9.068;2023-02-22T09:23:40;11.00;99.90
4874;DHT22;2451;49.970;9.068;2023-02-22T09:26:09;11.10;99.90
4874;DHT22;2451;49.970;9.068;2023-02-22T09:28:35;11.20;99.90
4874;DHT22;2451;49.970;9.068;2023-02-22T09:31:01;11.20;99.90
4874;DHT22;2451;49.970;9.068;2023-02-22T09:33:26;11.40;99.90
4874;DHT22;2451;49.970;9.068;2023-02-22T09:35:52;11.60;99.90
4874;DHT22;2451;49.970;9.068;2023-02-22T09:38:20;11.60;99.90
4874;DHT22;2451;49.970;9.068;2023-02-22T09:41:12;11.70;99.90
4874;DHT22;2451;49.970;9.068;2023-02-22T09:46:38;12.00;99.90
4874;DHT22;2451;49.970;9.068;2023-02-22T09:49:33;12.00;99.90
4874;DHT22;2451;49.970;9.068;2023-02-22T09:52:31;11.90;99.90
4874;DHT22;2451;49.970;9.068;2023-02-22T09:55:19;12.20;99.90
4874;DHT22;2451;49.970;9.068;2023-02-22T09:57:51;12.60;99.90
4874;DHT22;2451;49.970;9.068;2023-02-22T10:00:31;12.90;99.90
4874;DHT22;2451;49.970;9.068;2023-02-22T10:03:23;13.00;99.90
4874;DHT22;2451;49.970;9.068;2023-02-22T10:06:01;13.30;99.90
4874;DHT22;2451;49.970;9.068;2023-02-22T10:08:31;13.40;99.90
4874;DHT22;2451;49.970;9.068;2023-02-22T10:11:43;13.60;99.90
4874;DHT22;2451;49.970;9.068;2023-02-22T10:13:58;14.00;99.90
4874;DHT22;2451;49.970;9.068;2023-02-22T10:16:39;14.40;99.90
4874;DHT22;2451;49.970;9.068;2023-02-22T10:27:20;15.00;99.90
4874;DHT22;2451;49.970;9.068;2023-02-22T10:29:53;15.00;99.90
4874;DHT22;2451;49.970;9.068;2023-02-22T10:32:25;15.20;99.90
4874;DHT22;2451;49.970;9.068;2023-02-22T10:34:53;15.30;99.90
4874;DHT22;2451;49.970;9.068;2023-02-22T10:39:49;15.40;99.90
4874;DHT22;2451;49.970;9.068;2023-02-22T10:42:17;15.50;99.90
4874;DHT22;2451;49.970;9.068;2023-02-22T10:44:45;15.30;99.90
4874;DHT22;2451;49.970;9.068;2023-02-22T10:47:14;15.40;99.90
4874;DHT22;2451;49.970;9.068;2023-02-22T10:49:45;15.70;99.90
4874;DHT22;2451;49.970;9.068;2023-02-22T10:52:34;16.00;99.90
4874;DHT22;2451;49.970;9.068;2023-02-22T10:55:01;16.40;99.90
4874;DHT22;2451;49.970;9.068;2023-02-22T10:57:32;16.80;99.90
4874;DHT22;2451;49.970;9.068;2023-02-22T11:00:21;17.20;99.90
4874;DHT22;2451;49.970;9.068;2023-02-22T11:03:01;17.40;99.90
4874;DHT22;2451;49.970;9.068;2023-02-22T11:05:36;17.60;99.90
4874;DHT22;2451;49.970;9.068;2023-02-22T11:10:50;17.70;99.90
4874;DHT22;2451;49.970;9.068;2023-02-22T11:13:31;18.00;99.90
4874;DHT22;2451;49.970;9.068;2023-02-22T11:16:00;17.90;99.90
4874;DHT22;2451;49.970;9.068;2023-02-22T11:18:33;18.10;99.90
4874;DHT22;2451;49.970;9.068;2023-02-22T11:21:05;18.00;99.90
4874;DHT22;2451;49.970;9.068;2023-02-22T11:23:32;18.00;99.90
4874;DHT22;2451;49.970;9.068;2023-02-22T11:26:12;17.70;99.90
4874;DHT22;2451;49.970;9.068;2023-02-22T11:28:45;17.70;99.90
4874;DHT22;2451;49.970;9.068;2023-02-22T11:31:17;17.70;99.90
4874;DHT22;2451;49.970;9.068;2023-02-22T11:33:56;17.70;99.90
4874;DHT22;2451;49.970;9.068;2023-02-22T11:36:40;17.70;99.90
4874;DHT22;2451;49.970;9.068;2023-02-22T11:39:26;17.60;99.90
4874;DHT22;2451;49.970;9.068;2023-02-22T11:41:56;17.70;99.90
4874;DHT22;2451;49.970;9.068;2023-02-22T11:46:51;18.50;99.90
4874;DHT22;2451;49.970;9.068;2023-02-22T11:49:21;18.50;99.90
4874;DHT22;2451;49.970;9.068;2023-02-22T12:06:33;18.10;99.90
4874;DHT22;2451;49.970;9.068;2023-02-22T12:09:33;18.10;99.90
4874;DHT22;2451;49.970;9.068;2023-02-22T12:12:16;18.00;99.90
4874;DHT22;2451;49.970;9.068;2023-02-22T12:15:05;17.80;99.90
4874;DHT22;2451;49.970;9.068;2023-02-22T12:17:42;17.70;99.90
4874;DHT22;2451;49.970;9.068;2023-02-22T12:20:19;17.70;99.90
4874;DHT22;2451;49.970;9.068;2023-02-22T12:23:04;17.80;99.90
4874;DHT22;2451;49.970;9.068;2023-02-22T12:25:35;17.90;99.90
4874;DHT22;2451;49.970;9.068;2023-02-22T12:28:17;17.70;99.90
4874;DHT22;2451;49.970;9.068;2023-02-22T12:30:51;17.80;99.90
4874;DHT22;2451;49.970;9.068;2023-02-22T12:33:23;17.80;99.90
4874;DHT22;2451;49.970;9.068;2023-02-22T12:35:54;17.80;99.90
4874;DHT22;2451;49.970;9.068;2023-02-22T12:40:59;17.40;99.90
4874;DHT22;2451;49.970;9.068;2023-02-22T12:43:51;17.40;99.90
4874;DHT22;2451;49.970;9.068;2023-02-22T12:46:26;17.30;99.90
4874;DHT22;2451;49.970;9.068;2023-02-22T12:48:56;17.40;99.90
4874;DHT22;2451;49.970;9.068;2023-02-22T12:51:40;17.30;99.90
4874;DHT22;2451;49.970;9.068;2023-02-22T12:54:22;17.40;99.90
4874;DHT22;2451;49.970;9.068;2023-02-22T12:57:02;17.50;99.90
4874;DHT22;2451;49.970;9.068;2023-02-22T12:59:38;17.60;99.90
4874;DHT22;2451;49.970;9.068;2023-02-22T13:02:19;17.70;99.90
4874;DHT22;2451;49.970;9.068;2023-02-22T13:04:47;17.90;99.90
4874;DHT22;2451;49.970;9.068;2023-02-22T13:18:27;18.10;99.90
4874;DHT22;2451;49.970;9.068;2023-02-22T13:26:49;18.10;99.90
4874;DHT22;2451;49.970;9.068;2023-02-22T13:43:22;18.10;99.90
4874;DHT22;2451;49.970;9.068;2023-02-22T13:54:33;18.40;99.90
4874;DHT22;2451;49.970;9.068;2023-02-22T13:56:56;18.20;99.90
4874;DHT22;2451;49.970;9.068;2023-02-22T14:01:50;18.10;99.90
4874;DHT22;2451;49.970;9.068;2023-02-22T14:04:39;18.10;99.90
4874;DHT22;2451;49.970;9.068;2023-02-22T14:09:49;18.40;99.90
4874;DHT22;2451;49.970;9.068;2023-02-22T14:17:36;18.80;99.90
4874;DHT22;2451;49.970;9.068;2023-02-22T14:22:49;18.60;99.90
4874;DHT22;2451;49.970;9.068;2023-02-22T14:25:41;18.50;99.90
4874;DHT22;2451;49.970;9.068;2023-02-22T14:28:43;18.50;99.90
4874;DHT22;2451;49.970;9.068;2023-02-22T14:31:13;18.50;99.90
4874;DHT22;2451;49.970;9.068;2023-02-22T14:36:53;18.80;99.90
4874;DHT22;2451;49.970;9.068;2023-02-22T14:39:29;19.00;99.90
4874;DHT22;2451;49.970;9.068;2023-02-22T14:42:04;19.20;99.90
4874;DHT22;2451;49.970;9.068;2023-02-22T14:44:47;19.20;99.90
4874;DHT22;2451;49.970;9.068;2023-02-22T14:47:20;19.10;99.90
4874;DHT22;2451;49.970;9.068;2023-02-22T14:49:52;19.10;99.90
4874;DHT22;2451;49.970;9.068;2023-02-22T14:52:24;19.10;99.90
4874;DHT22;2451;49.970;9.068;2023-02-22T14:57:48;19.00;99.90
4874;DHT22;2451;49.970;9.068;2023-02-22T15:00:23;18.70;99.90
4874;DHT22;2451;49.970;9.068;2023-02-22T15:02:56;18.70;99.90
4874;DHT22;2451;49.970;9.068;2023-02-22T15:05:25;18.50;99.90
4874;DHT22;2451;49.970;9.068;2023-02-22T15:08:02;18.20;99.90
4874;DHT22;2451;49.970;9.068;2023-02-22T15:10:44;18.00;99.90
4874;DHT22;2451;49.970;9.068;2023-02-22T15:13:23;17.70;99.90
4874;DHT22;2451;49.970;9.068;2023-02-22T15:16:03;17.40;99.90
4874;DHT22;2451;49.970;9.068;2023-02-22T15:18:42;17.30;99.90
4874;DHT22;2451;49.970;9.068;2023-02-22T15:21:14;17.10;99.90
4874;DHT22;2451;49.970;9.068;2023-02-22T15:23:58;17.00;99.90
4874;DHT22;2451;49.970;9.068;2023-02-22T15:26:33;16.90;99.90
4874;DHT22;2451;49.970;9.068;2023-02-22T15:29:00;16.80;99.90
4874;DHT22;2451;49.970;9.068;2023-02-22T15:31:32;16.70;99.90
4874;DHT22;2451;49.970;9.068;2023-02-22T15:36:40;16.40;99.90
4874;DHT22;2451;49.970;9.068;2023-02-22T15:39:18;16.20;99.90
4874;DHT22;2451;49.970;9.068;2023-02-22T15:41:44;16.10;99.90
4874;DHT22;2451;49.970;9.068;2023-02-22T15:44:10;16.00;99.90
4874;DHT22;2451;49.970;9.068;2023-02-22T15:46:39;15.80;99.90
4874;DHT22;2451;49.970;9.068;2023-02-22T15:51:38;15.50;99.90
4874;DHT22;2451;49.970;9.068;2023-02-22T15:54:06;15.50;99.90
4874;DHT22;2451;49.970;9.068;2023-02-22T15:56:50;15.40;99.90
4874;DHT22;2451;49.970;9.068;2023-02-22T15:59:20;15.40;99.90
4874;DHT22;2451;49.970;9.068;2023-02-22T16:01:49;15.40;99.90
4874;DHT22;2451;49.970;9.068;2023-02-22T16:04:21;15.40;99.90
4874;DHT22;2451;49.970;9.068;2023-02-22T16:06:48;15.40;99.90
4874;DHT22;2451;49.970;9.068;2023-02-22T16:09:20;15.40;99.90
4874;DHT22;2451;49.970;9.068;2023-02-22T16:11:49;15.40;99.90
4874;DHT22;2451;49.970;9.068;2023-02-22T16:14:40;15.30;99.90
4874;DHT22;2451;49.970;9.068;2023-02-22T16:17:26;15.20;99.90
4874;DHT22;2451;49.970;9.068;2023-02-22T16:19:59;15.10;99.90
4874;DHT22;2451;49.970;9.068;2023-02-22T16:22:34;15.00;99.90
4874;DHT22;2451;49.970;9.068;2023-02-22T16:27:50;14.70;99.90
4874;DHT22;2451;49.970;9.068;2023-02-22T16:32:43;14.50;99.90
4874;DHT22;2451;49.970;9.068;2023-02-22T16:35:09;14.40;99.90
4874;DHT22;2451;49.970;9.068;2023-02-22T16:37:50;14.30;99.90
4874;DHT22;2451;49.970;9.068;2023-02-22T16:43:05;14.10;99.90
4874;DHT22;2451;49.970;9.068;2023-02-22T16:45:31;14.00;99.90
4874;DHT22;2451;49.970;9.068;2023-02-22T16:47:58;13.80;99.90
4874;DHT22;2451;49.970;9.068;2023-02-22T16:50:24;13.70;99.90
4874;DHT22;2451;49.970;9.068;2023-02-22T16:52:52;13.60;99.90
4874;DHT22;2451;49.970;9.068;2023-02-22T16:55:18;13.40;99.90
4874;DHT22;2451;49.970;9.068;2023-02-22T16:57:47;13.20;99.90
4874;DHT22;2451;49.970;9.068;2023-02-22T17:00:19;13.10;99.90
4874;DHT22;2451;49.970;9.068;2023-02-22T17:02:46;13.10;99.90
4874;DHT22;2451;49.970;9.068;2023-02-22T17:05:14;13.00;99.90
4874;DHT22;2451;49.970;9.068;2023-02-22T17:07:42;12.90;99.90
4874;DHT22;2451;49.970;9.068;2023-02-22T17:10:16;12.90;99.90
4874;DHT22;2451;49.970;9.068;2023-02-22T17:12:47;12.80;99.90
4874;DHT22;2451;49.970;9.068;2023-02-22T17:15:20;12.70;99.90
4874;DHT22;2451;49.970;9.068;2023-02-22T17:17:47;12.60;99.90
4874;DHT22;2451;49.970;9.068;2023-02-22T17:20:12;12.50;99.90
4874;DHT22;2451;49.970;9.068;2023-02-22T17:22:38;12.40;99.90
4874;DHT22;2451;49.970;9.068;2023-02-22T17:25:18;12.30;99.90
4874;DHT22;2451;49.970;9.068;2023-02-22T17:27:45;12.20;99.90
4874;DHT22;2451;49.970;9.068;2023-02-22T17:30:11;12.10;99.90
4874;DHT22;2451;49.970;9.068;2023-02-22T17:32:38;12.10;99.90
4874;DHT22;2451;49.970;9.068;2023-02-22T17:35:04;12.10;99.90
4874;DHT22;2451;49.970;9.068;2023-02-22T17:37:29;12.10;99.90
4874;DHT22;2451;49.970;9.068;2023-02-22T17:39:55;12.10;99.90
4874;DHT22;2451;49.970;9.068;2023-02-22T17:42:22;12.10;99.90
4874;DHT22;2451;49.970;9.068;2023-02-22T17:44:47;12.00;99.90
4874;DHT22;2451;49.970;9.068;2023-02-22T17:47:13;12.00;99.90
4874;DHT22;2451;49.970;9.068;2023-02-22T17:49:38;12.00;99.90
4874;DHT22;2451;49.970;9.068;2023-02-22T17:52:05;11.90;99.90
4874;DHT22;2451;49.970;9.068;2023-02-22T17:54:31;11.90;99.90
4874;DHT22;2451;49.970;9.068;2023-02-22T17:56:59;11.90;99.90
4874;DHT22;2451;49.970;9.068;2023-02-22T17:59:25;11.80;99.90
4874;DHT22;2451;49.970;9.068;2023-02-22T18:01:51;11.80;99.90
4874;DHT22;2451;49.970;9.068;2023-02-22T18:04:19;11.70;99.90
4874;DHT22;2451;49.970;9.068;2023-02-22T18:06:44;11.70;99.90
4874;DHT22;2451;49.970;9.068;2023-02-22T18:09:11;11.60;99.90
4874;DHT22;2451;49.970;9.068;2023-02-22T18:11:38;11.50;99.90
4874;DHT22;2451;49.970;9.068;2023-02-22T18:14:03;11.50;99.90
4874;DHT22;2451;49.970;9.068;2023-02-22T18:16:31;11.40;99.90
4874;DHT22;2451;49.970;9.068;2023-02-22T18:18:57;11.30;99.90
4874;DHT22;2451;49.970;9.068;2023-02-22T18:21:25;11.20;99.90
4874;DHT22;2451;49.970;9.068;2023-02-22T18:23:51;11.20;99.90
4874;DHT22;2451;49.970;9.068;2023-02-22T18:26:18;11.10;99.90
4874;DHT22;2451;49.970;9.068;2023-02-22T18:28:44;11.10;99.90
4874;DHT22;2451;49.970;9.068;2023-02-22T18:31:14;11.00;99.90
4874;DHT22;2451;49.970;9.068;2023-02-22T18:33:44;10.90;99.90
4874;DHT22;2451;49.970;9.068;2023-02-22T18:36:11;10.70;99.90
4874;DHT22;2451;49.970;9.068;2023-02-22T18:38:38;10.60;99.90
4874;DHT22;2451;49.970;9.068;2023-02-22T18:41:09;10.60;99.90
4874;DHT22;2451;49.970;9.068;2023-02-22T18:43:35;10.50;99.90
4874;DHT22;2451;49.970;9.068;2023-02-22T18:46:11;10.50;99.90
4874;DHT22;2451;49.970;9.068;2023-02-22T18:48:38;10.50;99.90
4874;DHT22;2451;49.970;9.068;2023-02-22T18:51:06;10.50;99.90